sensor_id;sensor_type;location;lat;lon;timestamp;temperature;humidity
54590;DHT22;40485;53.172;5.416;2022-07-03T00:00:57;20.00;88.10
54590;DHT22;40485;53.172;5.416;2022-07-03T00:03:23;20.00;88.70
54590;DHT22;40485;53.172;5.416;2022-07-03T00:05:48;20.00;88.50
54590;DHT22;40485;53.172;5.416;2022-07-03T00:08:14;20.00;88.60
54590;DHT22;40485;53.172;5.416;2022-07-03T00:10:39;20.00;88.40
54590;DHT22;40485;53.172;5.416;2022-07-03T00:13:05;20.00;88.80
54590;DHT22;40485;53.172;5.416;2022-07-03T00:15:31;19.90;88.90
54590;DHT22;40485;53.172;5.416;2022-07-03T00:17:56;19.90;89.20
54590;DHT22;40485;53.172;5.416;2022-07-03T00:20:23;19.90;89.30
54590;DHT22;40485;53.172;5.416;2022-07-03T00:22:53;19.90;88.90
54590;DHT22;40485;53.172;5.416;2022-07-03T00:25:20;19.90;88.70
54590;DHT22;40485;53.172;5.416;2022-07-03T00:27:48;19.80;88.90
54590;DHT22;40485;53.172;5.416;2022-07-03T00:30:15;19.80;89.20
54590;DHT22;40485;53.172;5.416;2022-07-03T00:32:42;19.70;89.70
54590;DHT22;40485;53.172;5.416;2022-07-03T00:35:09;19.50;90.00
54590;DHT22;40485;53.172;5.416;2022-07-03T00:37:34;19.40;90.20
54590;DHT22;40485;53.172;5.416;2022-07-03T00:40:00;19.30;90.40
54590;DHT22;40485;53.172;5.416;2022-07-03T00:42:27;19.20;90.60
54590;DHT22;40485;53.172;5.416;2022-07-03T00:44:54;19.10;90.70
54590;DHT22;40485;53.172;5.416;2022-07-03T00:47:23;19.00;90.90
54590;DHT22;40485;53.172;5.416;2022-07-03T00:49:56;19.00;91.10
54590;DHT22;40485;53.172;5.416;2022-07-03T00:52:25;18.90;91.20
54590;DHT22;40485;53.172;5.416;2022-07-03T00:54:59;18.90;91.30
54590;DHT22;40485;53.172;5.416;2022-07-03T00:57:27;18.90;91.40
54590;DHT22;40485;53.172;5.416;2022-07-03T00:59:53;18.80;91.50
54590;DHT22;40485;53.172;5.416;2022-07-03T01:02:38;18.80;91.60
54590;DHT22;40485;53.172;5.416;2022-07-03T01:15:50;18.70;91.50
54590;DHT22;40485;53.172;5.416;2022-07-03T01:18:28;18.70;91.40
54590;DHT22;40485;53.172;5.416;2022-07-03T01:21:06;18.60;91.40
54590;DHT22;40485;53.172;5.416;2022-07-03T01:23:56;18.60;91.40
54590;DHT22;40485;53.172;5.416;2022-07-03T01:26:25;18.60;91.40
54590;DHT22;40485;53.172;5.416;2022-07-03T01:28:52;18.40;91.30
54590;DHT22;40485;53.172;5.416;2022-07-03T01:31:19;18.50;91.30
54590;DHT22;40485;53.172;5.416;2022-07-03T01:33:50;18.50;91.30
54590;DHT22;40485;53.172;5.416;2022-07-03T01:36:18;18.50;91.30
54590;DHT22;40485;53.172;5.416;2022-07-03T01:38:48;18.50;91.30
54590;DHT22;40485;53.172;5.416;2022-07-03T01:41:15;18.50;91.30
54590;DHT22;40485;53.172;5.416;2022-07-03T01:43:50;18.50;91.30
54590;DHT22;40485;53.172;5.416;2022-07-03T01:46:18;18.50;91.30
54590;DHT22;40485;53.172;5.416;2022-07-03T01:48:46;18.50;91.40
54590;DHT22;40485;53.172;5.416;2022-07-03T01:51:16;18.40;91.40
54590;DHT22;40485;53.172;5.416;2022-07-03T01:53:49;18.40;91.50
54590;DHT22;40485;53.172;5.416;2022-07-03T01:56:19;18.30;91.70
54590;DHT22;40485;53.172;5.416;2022-07-03T01:58:45;18.30;91.80
54590;DHT22;40485;53.172;5.416;2022-07-03T02:01:26;18.30;92.10
54590;DHT22;40485;53.172;5.416;2022-07-03T02:04:18;18.30;92.30
54590;DHT22;40485;53.172;5.416;2022-07-03T02:07:12;18.60;88.00
54590;DHT22;40485;53.172;5.416;2022-07-03T02:09:49;18.90;86.20
54590;DHT22;40485;53.172;5.416;2022-07-03T02:12:18;19.10;86.00
54590;DHT22;40485;53.172;5.416;2022-07-03T02:14:51;19.20;85.20
54590;DHT22;40485;53.172;5.416;2022-07-03T02:17:20;19.30;85.50
54590;DHT22;40485;53.172;5.416;2022-07-03T02:19:56;19.40;85.70
54590;DHT22;40485;53.172;5.416;2022-07-03T02:22:28;19.30;86.60
54590;DHT22;40485;53.172;5.416;2022-07-03T02:25:06;19.40;86.50
54590;DHT22;40485;53.172;5.416;2022-07-03T02:27:42;19.40;87.10
54590;DHT22;40485;53.172;5.416;2022-07-03T02:30:09;19.40;88.20
54590;DHT22;40485;53.172;5.416;2022-07-03T02:32:51;19.30;88.80
54590;DHT22;40485;53.172;5.416;2022-07-03T02:35:29;19.30;89.60
54590;DHT22;40485;53.172;5.416;2022-07-03T02:38:16;19.30;90.20
54590;DHT22;40485;53.172;5.416;2022-07-03T02:46:37;19.20;90.50
54590;DHT22;40485;53.172;5.416;2022-07-03T02:51:48;19.20;90.70
54590;DHT22;40485;53.172;5.416;2022-07-03T02:54:17;19.20;91.10
54590;DHT22;40485;53.172;5.416;2022-07-03T02:59:13;19.00;91.60
54590;DHT22;40485;53.172;5.416;2022-07-03T03:01:48;19.10;91.30
54590;DHT22;40485;53.172;5.416;2022-07-03T03:04:20;19.10;91.00
54590;DHT22;40485;53.172;5.416;2022-07-03T03:06:55;19.00;91.10
54590;DHT22;40485;53.172;5.416;2022-07-03T03:09:27;19.10;90.90
54590;DHT22;40485;53.172;5.416;2022-07-03T03:11:56;19.00;91.20
54590;DHT22;40485;53.172;5.416;2022-07-03T03:14:31;19.00;90.90
54590;DHT22;40485;53.172;5.416;2022-07-03T03:17:02;19.10;90.70
54590;DHT22;40485;53.172;5.416;2022-07-03T03:19:39;19.00;90.60
54590;DHT22;40485;53.172;5.416;2022-07-03T03:24:50;18.90;90.90
54590;DHT22;40485;53.172;5.416;2022-07-03T03:27:16;18.90;90.70
54590;DHT22;40485;53.172;5.416;2022-07-03T03:29:43;18.90;91.00
54590;DHT22;40485;53.172;5.416;2022-07-03T03:32:09;18.90;91.10
54590;DHT22;40485;53.172;5.416;2022-07-03T03:34:35;18.90;91.00
54590;DHT22;40485;53.172;5.416;2022-07-03T03:37:01;18.80;91.10
54590;DHT22;40485;53.172;5.416;2022-07-03T03:39:28;18.90;91.20
54590;DHT22;40485;53.172;5.416;2022-07-03T03:41:54;18.80;91.20
54590;DHT22;40485;53.172;5.416;2022-07-03T03:44:19;18.80;91.50
54590;DHT22;40485;53.172;5.416;2022-07-03T03:46:45;18.80;91.50
54590;DHT22;40485;53.172;5.416;2022-07-03T03:49:11;18.80;91.60
54590;DHT22;40485;53.172;5.416;2022-07-03T03:51:37;18.90;91.70
54590;DHT22;40485;53.172;5.416;2022-07-03T03:54:03;18.80;91.70
54590;DHT22;40485;53.172;5.416;2022-07-03T03:56:30;18.80;92.10
54590;DHT22;40485;53.172;5.416;2022-07-03T03:58:55;18.80;91.90
54590;DHT22;40485;53.172;5.416;2022-07-03T04:01:21;18.80;91.90
54590;DHT22;40485;53.172;5.416;2022-07-03T04:03:47;18.80;91.70
54590;DHT22;40485;53.172;5.416;2022-07-03T04:06:12;18.80;91.90
54590;DHT22;40485;53.172;5.416;2022-07-03T04:08:38;18.80;92.20
54590;DHT22;40485;53.172;5.416;2022-07-03T04:11:04;18.80;92.60
54590;DHT22;40485;53.172;5.416;2022-07-03T04:13:29;18.80;92.90
54590;DHT22;40485;53.172;5.416;2022-07-03T04:15:55;18.80;93.10
54590;DHT22;40485;53.172;5.416;2022-07-03T04:18:21;18.80;93.10
54590;DHT22;40485;53.172;5.416;2022-07-03T04:20:47;18.80;93.30
54590;DHT22;40485;53.172;5.416;2022-07-03T04:23:13;18.70;93.30
54590;DHT22;40485;53.172;5.416;2022-07-03T04:25:38;18.70;93.60
54590;DHT22;40485;53.172;5.416;2022-07-03T04:28:04;18.70;94.00
54590;DHT22;40485;53.172;5.416;2022-07-03T04:30:30;18.70;94.00
54590;DHT22;40485;53.172;5.416;2022-07-03T04:32:56;18.70;94.00
54590;DHT22;40485;53.172;5.416;2022-07-03T04:35:21;18.70;94.30
54590;DHT22;40485;53.172;5.416;2022-07-03T04:37:47;18.70;94.30
54590;DHT22;40485;53.172;5.416;2022-07-03T04:40:13;18.60;94.20
54590;DHT22;40485;53.172;5.416;2022-07-03T04:42:39;18.60;94.30
54590;DHT22;40485;53.172;5.416;2022-07-03T04:45:05;18.60;94.50
54590;DHT22;40485;53.172;5.416;2022-07-03T04:47:31;18.60;94.50
54590;DHT22;40485;53.172;5.416;2022-07-03T04:49:57;18.60;94.80
54590;DHT22;40485;53.172;5.416;2022-07-03T04:52:23;18.60;94.80
54590;DHT22;40485;53.172;5.416;2022-07-03T04:54:48;18.60;94.80
54590;DHT22;40485;53.172;5.416;2022-07-03T04:57:14;18.60;94.80
54590;DHT22;40485;53.172;5.416;2022-07-03T04:59:40;18.60;94.90
54590;DHT22;40485;53.172;5.416;2022-07-03T05:02:06;18.60;94.90
54590;DHT22;40485;53.172;5.416;2022-07-03T05:04:31;18.60;94.80
54590;DHT22;40485;53.172;5.416;2022-07-03T05:06:57;18.50;95.00
54590;DHT22;40485;53.172;5.416;2022-07-03T05:09:23;18.50;95.10
54590;DHT22;40485;53.172;5.416;2022-07-03T05:11:49;18.50;95.30
54590;DHT22;40485;53.172;5.416;2022-07-03T05:14:14;18.50;95.30
54590;DHT22;40485;53.172;5.416;2022-07-03T05:16:40;18.50;95.50
54590;DHT22;40485;53.172;5.416;2022-07-03T05:19:06;18.50;95.60
54590;DHT22;40485;53.172;5.416;2022-07-03T05:21:32;18.50;95.50
54590;DHT22;40485;53.172;5.416;2022-07-03T05:23:57;18.50;95.50
54590;DHT22;40485;53.172;5.416;2022-07-03T05:26:23;18.50;95.60
54590;DHT22;40485;53.172;5.416;2022-07-03T05:28:49;18.50;95.60
54590;DHT22;40485;53.172;5.416;2022-07-03T05:31:15;18.50;95.70
54590;DHT22;40485;53.172;5.416;2022-07-03T05:33:41;18.50;95.90
54590;DHT22;40485;53.172;5.416;2022-07-03T05:36:06;18.50;95.80
54590;DHT22;40485;53.172;5.416;2022-07-03T05:38:32;18.50;95.90
54590;DHT22;40485;53.172;5.416;2022-07-03T05:41:16;18.50;96.00
54590;DHT22;40485;53.172;5.416;2022-07-03T05:43:42;18.50;96.20
54590;DHT22;40485;53.172;5.416;2022-07-03T05:46:08;18.60;96.30
54590;DHT22;40485;53.172;5.416;2022-07-03T05:48:34;18.60;96.40
54590;DHT22;40485;53.172;5.416;2022-07-03T05:51:00;18.60;96.50
54590;DHT22;40485;53.172;5.416;2022-07-03T05:53:25;18.60;96.70
54590;DHT22;40485;53.172;5.416;2022-07-03T05:55:51;18.60;96.70
54590;DHT22;40485;53.172;5.416;2022-07-03T05:58:17;18.60;96.60
54590;DHT22;40485;53.172;5.416;2022-07-03T06:00:43;18.60;96.70
54590;DHT22;40485;53.172;5.416;2022-07-03T06:03:08;18.60;96.70
54590;DHT22;40485;53.172;5.416;2022-07-03T06:05:34;18.50;96.70
54590;DHT22;40485;53.172;5.416;2022-07-03T06:08:01;18.60;96.70
54590;DHT22;40485;53.172;5.416;2022-07-03T06:10:27;18.50;96.50
54590;DHT22;40485;53.172;5.416;2022-07-03T06:12:53;18.60;96.60
54590;DHT22;40485;53.172;5.416;2022-07-03T06:15:19;18.70;96.80
54590;DHT22;40485;53.172;5.416;2022-07-03T06:17:45;18.60;97.10
54590;DHT22;40485;53.172;5.416;2022-07-03T06:20:11;18.70;96.90
54590;DHT22;40485;53.172;5.416;2022-07-03T06:22:37;18.70;97.30
54590;DHT22;40485;53.172;5.416;2022-07-03T06:25:03;18.70;97.40
54590;DHT22;40485;53.172;5.416;2022-07-03T06:27:29;18.70;97.40
54590;DHT22;40485;53.172;5.416;2022-07-03T06:29:55;18.70;97.30
54590;DHT22;40485;53.172;5.416;2022-07-03T06:32:20;18.70;97.50
54590;DHT22;40485;53.172;5.416;2022-07-03T06:34:47;18.70;97.60
54590;DHT22;40485;53.172;5.416;2022-07-03T06:37:13;18.70;97.30
54590;DHT22;40485;53.172;5.416;2022-07-03T06:39:38;18.70;97.30
54590;DHT22;40485;53.172;5.416;2022-07-03T06:42:04;18.80;97.40
54590;DHT22;40485;53.172;5.416;2022-07-03T06:44:30;18.70;97.20
54590;DHT22;40485;53.172;5.416;2022-07-03T06:46:56;18.70;97.40
54590;DHT22;40485;53.172;5.416;2022-07-03T06:49:22;18.80;97.70
54590;DHT22;40485;53.172;5.416;2022-07-03T06:51:48;18.80;98.00
54590;DHT22;40485;53.172;5.416;2022-07-03T06:54:14;18.80;97.80
54590;DHT22;40485;53.172;5.416;2022-07-03T06:56:40;18.80;98.20
54590;DHT22;40485;53.172;5.416;2022-07-03T06:59:08;18.80;98.00
54590;DHT22;40485;53.172;5.416;2022-07-03T07:01:33;18.80;98.30
54590;DHT22;40485;53.172;5.416;2022-07-03T07:03:59;18.90;98.20
54590;DHT22;40485;53.172;5.416;2022-07-03T07:06:24;18.90;97.70
54590;DHT22;40485;53.172;5.416;2022-07-03T07:08:50;18.90;97.80
54590;DHT22;40485;53.172;5.416;2022-07-03T07:11:16;18.90;98.00
54590;DHT22;40485;53.172;5.416;2022-07-03T07:13:42;18.90;98.50
54590;DHT22;40485;53.172;5.416;2022-07-03T07:16:07;19.00;98.50
54590;DHT22;40485;53.172;5.416;2022-07-03T07:18:33;19.10;98.10
54590;DHT22;40485;53.172;5.416;2022-07-03T07:21:00;19.00;97.90
54590;DHT22;40485;53.172;5.416;2022-07-03T07:23:25;19.00;97.80
54590;DHT22;40485;53.172;5.416;2022-07-03T07:25:51;19.00;97.70
54590;DHT22;40485;53.172;5.416;2022-07-03T07:28:17;19.00;97.80
54590;DHT22;40485;53.172;5.416;2022-07-03T07:30:43;19.10;97.90
54590;DHT22;40485;53.172;5.416;2022-07-03T07:33:09;19.10;97.80
54590;DHT22;40485;53.172;5.416;2022-07-03T07:35:35;19.20;97.90
54590;DHT22;40485;53.172;5.416;2022-07-03T07:38:00;19.30;98.10
54590;DHT22;40485;53.172;5.416;2022-07-03T07:40:26;19.40;98.00
54590;DHT22;40485;53.172;5.416;2022-07-03T07:42:51;19.50;98.00
54590;DHT22;40485;53.172;5.416;2022-07-03T07:45:17;19.50;98.00
54590;DHT22;40485;53.172;5.416;2022-07-03T07:47:43;19.70;97.80
54590;DHT22;40485;53.172;5.416;2022-07-03T07:50:09;19.70;97.30
54590;DHT22;40485;53.172;5.416;2022-07-03T07:52:35;19.60;97.00
54590;DHT22;40485;53.172;5.416;2022-07-03T07:55:01;19.70;96.70
54590;DHT22;40485;53.172;5.416;2022-07-03T07:57:37;19.70;96.50
54590;DHT22;40485;53.172;5.416;2022-07-03T08:00:07;19.80;96.50
54590;DHT22;40485;53.172;5.416;2022-07-03T08:02:33;20.00;96.60
54590;DHT22;40485;53.172;5.416;2022-07-03T08:05:18;20.10;96.30
54590;DHT22;40485;53.172;5.416;2022-07-03T08:08:12;20.10;95.80
54590;DHT22;40485;53.172;5.416;2022-07-03T08:10:41;20.10;95.40
54590;DHT22;40485;53.172;5.416;2022-07-03T08:13:08;20.10;95.60
54590;DHT22;40485;53.172;5.416;2022-07-03T08:15:35;20.10;95.30
54590;DHT22;40485;53.172;5.416;2022-07-03T08:18:01;20.20;95.10
54590;DHT22;40485;53.172;5.416;2022-07-03T08:20:27;20.20;94.90
54590;DHT22;40485;53.172;5.416;2022-07-03T08:22:53;20.30;94.90
54590;DHT22;40485;53.172;5.416;2022-07-03T08:25:18;20.40;94.90
54590;DHT22;40485;53.172;5.416;2022-07-03T08:27:44;20.50;95.10
54590;DHT22;40485;53.172;5.416;2022-07-03T08:30:10;20.70;95.10
54590;DHT22;40485;53.172;5.416;2022-07-03T08:32:35;20.90;95.30
54590;DHT22;40485;53.172;5.416;2022-07-03T08:35:01;21.00;95.20
54590;DHT22;40485;53.172;5.416;2022-07-03T08:37:27;21.10;95.00
54590;DHT22;40485;53.172;5.416;2022-07-03T08:39:53;21.20;94.70
54590;DHT22;40485;53.172;5.416;2022-07-03T08:42:19;21.40;94.40
54590;DHT22;40485;53.172;5.416;2022-07-03T08:44:46;21.50;94.00
54590;DHT22;40485;53.172;5.416;2022-07-03T08:47:15;21.60;93.50
54590;DHT22;40485;53.172;5.416;2022-07-03T08:49:42;21.60;93.30
54590;DHT22;40485;53.172;5.416;2022-07-03T08:52:09;21.70;92.90
54590;DHT22;40485;53.172;5.416;2022-07-03T08:54:37;21.70;92.70
54590;DHT22;40485;53.172;5.416;2022-07-03T08:57:03;21.80;92.50
54590;DHT22;40485;53.172;5.416;2022-07-03T08:59:36;21.70;92.50
54590;DHT22;40485;53.172;5.416;2022-07-03T09:02:03;21.70;92.30
54590;DHT22;40485;53.172;5.416;2022-07-03T09:04:31;21.80;92.10
54590;DHT22;40485;53.172;5.416;2022-07-03T09:06:58;21.90;91.70
54590;DHT22;40485;53.172;5.416;2022-07-03T09:09:24;21.90;91.70
54590;DHT22;40485;53.172;5.416;2022-07-03T09:11:51;22.00;91.60
54590;DHT22;40485;53.172;5.416;2022-07-03T09:14:17;22.10;91.10
54590;DHT22;40485;53.172;5.416;2022-07-03T09:16:43;22.10;90.80
54590;DHT22;40485;53.172;5.416;2022-07-03T09:19:09;22.20;91.00
54590;DHT22;40485;53.172;5.416;2022-07-03T09:21:38;22.20;91.00
54590;DHT22;40485;53.172;5.416;2022-07-03T09:24:08;22.20;91.00
54590;DHT22;40485;53.172;5.416;2022-07-03T09:26:35;22.20;90.80
54590;DHT22;40485;53.172;5.416;2022-07-03T09:29:02;22.40;90.90
54590;DHT22;40485;53.172;5.416;2022-07-03T09:31:29;22.40;90.70
54590;DHT22;40485;53.172;5.416;2022-07-03T09:34:00;22.50;90.70
54590;DHT22;40485;53.172;5.416;2022-07-03T09:36:45;22.50;90.30
54590;DHT22;40485;53.172;5.416;2022-07-03T09:39:14;22.50;90.20
54590;DHT22;40485;53.172;5.416;2022-07-03T09:42:10;22.50;90.20
54590;DHT22;40485;53.172;5.416;2022-07-03T09:44:37;22.50;90.30
54590;DHT22;40485;53.172;5.416;2022-07-03T09:47:14;22.50;90.40
54590;DHT22;40485;53.172;5.416;2022-07-03T10:00:23;22.60;89.50
54590;DHT22;40485;53.172;5.416;2022-07-03T10:05:41;22.80;89.70
54590;DHT22;40485;53.172;5.416;2022-07-03T10:08:15;22.90;88.90
54590;DHT22;40485;53.172;5.416;2022-07-03T10:10:46;22.90;88.80
54590;DHT22;40485;53.172;5.416;2022-07-03T10:13:12;22.90;87.90
54590;DHT22;40485;53.172;5.416;2022-07-03T10:15:40;22.90;87.80
54590;DHT22;40485;53.172;5.416;2022-07-03T10:18:08;22.80;88.20
54590;DHT22;40485;53.172;5.416;2022-07-03T10:20:40;22.70;88.00
54590;DHT22;40485;53.172;5.416;2022-07-03T10:23:10;22.80;88.20
54590;DHT22;40485;53.172;5.416;2022-07-03T10:25:39;22.80;87.70
54590;DHT22;40485;53.172;5.416;2022-07-03T10:28:05;22.70;88.60
54590;DHT22;40485;53.172;5.416;2022-07-03T10:30:32;22.70;88.40
54590;DHT22;40485;53.172;5.416;2022-07-03T10:32:59;22.60;88.50
54590;DHT22;40485;53.172;5.416;2022-07-03T10:35:28;22.50;89.60
54590;DHT22;40485;53.172;5.416;2022-07-03T10:41:23;22.40;89.50
54590;DHT22;40485;53.172;5.416;2022-07-03T10:43:50;22.40;89.70
54590;DHT22;40485;53.172;5.416;2022-07-03T10:46:35;22.30;90.00
54590;DHT22;40485;53.172;5.416;2022-07-03T10:49:04;22.20;90.10
54590;DHT22;40485;53.172;5.416;2022-07-03T10:54:18;22.10;90.20
54590;DHT22;40485;53.172;5.416;2022-07-03T11:07:35;22.70;88.50
54590;DHT22;40485;53.172;5.416;2022-07-03T11:20:31;23.00;89.30
54590;DHT22;40485;53.172;5.416;2022-07-03T11:25:25;23.30;88.50
54590;DHT22;40485;53.172;5.416;2022-07-03T11:27:50;23.50;87.70
54590;DHT22;40485;53.172;5.416;2022-07-03T11:30:18;23.60;87.50
54590;DHT22;40485;53.172;5.416;2022-07-03T11:32:51;23.70;86.50
54590;DHT22;40485;53.172;5.416;2022-07-03T11:38:07;24.10;86.70
54590;DHT22;40485;53.172;5.416;2022-07-03T11:40:36;24.30;84.80
54590;DHT22;40485;53.172;5.416;2022-07-03T11:43:05;24.30;85.10
54590;DHT22;40485;53.172;5.416;2022-07-03T11:45:31;24.20;84.60
54590;DHT22;40485;53.172;5.416;2022-07-03T11:47:57;24.30;85.20
54590;DHT22;40485;53.172;5.416;2022-07-03T11:50:37;24.40;84.00
54590;DHT22;40485;53.172;5.416;2022-07-03T11:53:20;24.50;83.00
54590;DHT22;40485;53.172;5.416;2022-07-03T11:55:59;24.60;83.60
54590;DHT22;40485;53.172;5.416;2022-07-03T11:58:40;24.70;83.60
54590;DHT22;40485;53.172;5.416;2022-07-03T12:01:26;24.60;83.50
54590;DHT22;40485;53.172;5.416;2022-07-03T12:04:11;24.50;82.30
54590;DHT22;40485;53.172;5.416;2022-07-03T12:06:51;24.50;82.10
54590;DHT22;40485;53.172;5.416;2022-07-03T12:09:21;24.50;82.70
54590;DHT22;40485;53.172;5.416;2022-07-03T12:17:03;24.30;82.90
54590;DHT22;40485;53.172;5.416;2022-07-03T12:19:29;24.40;83.20
54590;DHT22;40485;53.172;5.416;2022-07-03T12:21:55;24.30;82.50
54590;DHT22;40485;53.172;5.416;2022-07-03T12:24:21;24.40;83.00
54590;DHT22;40485;53.172;5.416;2022-07-03T12:26:47;24.40;83.50
54590;DHT22;40485;53.172;5.416;2022-07-03T12:29:14;24.50;82.90
54590;DHT22;40485;53.172;5.416;2022-07-03T12:31:45;24.60;83.50
54590;DHT22;40485;53.172;5.416;2022-07-03T12:34:13;24.60;82.50
54590;DHT22;40485;53.172;5.416;2022-07-03T12:36:40;24.60;81.80
54590;DHT22;40485;53.172;5.416;2022-07-03T12:39:06;24.60;82.30
54590;DHT22;40485;53.172;5.416;2022-07-03T12:41:32;24.50;81.50
54590;DHT22;40485;53.172;5.416;2022-07-03T12:43:59;24.40;81.90
54590;DHT22;40485;53.172;5.416;2022-07-03T12:46:34;24.40;82.90
54590;DHT22;40485;53.172;5.416;2022-07-03T12:49:09;24.50;82.80
54590;DHT22;40485;53.172;5.416;2022-07-03T12:51:44;24.50;82.00
54590;DHT22;40485;53.172;5.416;2022-07-03T12:54:13;24.50;82.10
54590;DHT22;40485;53.172;5.416;2022-07-03T12:56:42;24.50;81.20
54590;DHT22;40485;53.172;5.416;2022-07-03T12:59:24;24.30;80.50
54590;DHT22;40485;53.172;5.416;2022-07-03T13:02:04;24.10;80.70
54590;DHT22;40485;53.172;5.416;2022-07-03T13:04:35;23.90;80.80
54590;DHT22;40485;53.172;5.416;2022-07-03T13:07:06;23.80;80.70
54590;DHT22;40485;53.172;5.416;2022-07-03T13:09:33;23.60;80.90
54590;DHT22;40485;53.172;5.416;2022-07-03T13:11:59;23.50;79.70
54590;DHT22;40485;53.172;5.416;2022-07-03T13:14:25;23.30;79.80
54590;DHT22;40485;53.172;5.416;2022-07-03T13:16:53;23.20;79.50
54590;DHT22;40485;53.172;5.416;2022-07-03T13:19:27;23.10;80.20
54590;DHT22;40485;53.172;5.416;2022-07-03T13:21:54;23.10;80.80
54590;DHT22;40485;53.172;5.416;2022-07-03T13:24:20;23.00;81.70
54590;DHT22;40485;53.172;5.416;2022-07-03T13:26:47;22.90;81.90
54590;DHT22;40485;53.172;5.416;2022-07-03T13:29:13;22.80;82.20
54590;DHT22;40485;53.172;5.416;2022-07-03T13:31:39;22.80;81.70
54590;DHT22;40485;53.172;5.416;2022-07-03T13:34:05;22.80;81.40
54590;DHT22;40485;53.172;5.416;2022-07-03T13:36:32;22.90;80.10
54590;DHT22;40485;53.172;5.416;2022-07-03T13:38:58;23.00;82.00
54590;DHT22;40485;53.172;5.416;2022-07-03T13:41:24;23.00;81.70
54590;DHT22;40485;53.172;5.416;2022-07-03T13:43:51;23.10;81.60
54590;DHT22;40485;53.172;5.416;2022-07-03T13:46:18;23.20;80.80
54590;DHT22;40485;53.172;5.416;2022-07-03T13:48:44;23.20;79.60
54590;DHT22;40485;53.172;5.416;2022-07-03T13:51:10;23.20;79.10
54590;DHT22;40485;53.172;5.416;2022-07-03T13:53:36;23.20;81.70
54590;DHT22;40485;53.172;5.416;2022-07-03T13:56:02;23.40;80.40
54590;DHT22;40485;53.172;5.416;2022-07-03T13:58:28;23.50;79.80
54590;DHT22;40485;53.172;5.416;2022-07-03T14:00:54;23.60;80.10
54590;DHT22;40485;53.172;5.416;2022-07-03T14:03:20;23.70;79.90
54590;DHT22;40485;53.172;5.416;2022-07-03T14:05:46;23.80;79.50
54590;DHT22;40485;53.172;5.416;2022-07-03T14:08:13;23.80;77.90
54590;DHT22;40485;53.172;5.416;2022-07-03T14:10:39;23.80;80.00
54590;DHT22;40485;53.172;5.416;2022-07-03T14:13:05;23.70;78.80
54590;DHT22;40485;53.172;5.416;2022-07-03T14:15:33;23.70;79.30
54590;DHT22;40485;53.172;5.416;2022-07-03T14:17:58;23.60;79.00
54590;DHT22;40485;53.172;5.416;2022-07-03T14:20:26;23.50;80.40
54590;DHT22;40485;53.172;5.416;2022-07-03T14:22:51;23.50;80.90
54590;DHT22;40485;53.172;5.416;2022-07-03T14:25:17;23.50;82.50
54590;DHT22;40485;53.172;5.416;2022-07-03T14:27:43;23.60;81.90
54590;DHT22;40485;53.172;5.416;2022-07-03T14:30:27;23.60;81.70
54590;DHT22;40485;53.172;5.416;2022-07-03T14:33:11;23.70;82.10
54590;DHT22;40485;53.172;5.416;2022-07-03T14:35:36;23.80;81.80
54590;DHT22;40485;53.172;5.416;2022-07-03T14:38:03;23.70;82.30
54590;DHT22;40485;53.172;5.416;2022-07-03T14:40:28;23.90;82.30
54590;DHT22;40485;53.172;5.416;2022-07-03T14:42:54;23.90;81.60
54590;DHT22;40485;53.172;5.416;2022-07-03T14:45:19;24.00;81.80
54590;DHT22;40485;53.172;5.416;2022-07-03T14:47:46;24.00;82.40
54590;DHT22;40485;53.172;5.416;2022-07-03T14:50:12;24.10;81.80
54590;DHT22;40485;53.172;5.416;2022-07-03T14:52:39;24.10;80.60
54590;DHT22;40485;53.172;5.416;2022-07-03T14:55:04;24.00;82.40
54590;DHT22;40485;53.172;5.416;2022-07-03T15:00:11;24.00;81.80
54590;DHT22;40485;53.172;5.416;2022-07-03T15:03:02;24.00;82.00
54590;DHT22;40485;53.172;5.416;2022-07-03T15:05:29;23.90;82.00
54590;DHT22;40485;53.172;5.416;2022-07-03T15:10:39;23.80;82.40
54590;DHT22;40485;53.172;5.416;2022-07-03T15:13:05;23.80;81.60
54590;DHT22;40485;53.172;5.416;2022-07-03T15:15:32;23.70;81.70
54590;DHT22;40485;53.172;5.416;2022-07-03T15:18:01;23.60;82.00
54590;DHT22;40485;53.172;5.416;2022-07-03T15:20:31;23.60;82.50
54590;DHT22;40485;53.172;5.416;2022-07-03T15:22:59;23.60;82.50
54590;DHT22;40485;53.172;5.416;2022-07-03T15:25:26;23.60;83.30
54590;DHT22;40485;53.172;5.416;2022-07-03T15:27:53;23.70;83.40
54590;DHT22;40485;53.172;5.416;2022-07-03T15:30:21;23.70;82.80
54590;DHT22;40485;53.172;5.416;2022-07-03T15:32:48;23.70;82.00
54590;DHT22;40485;53.172;5.416;2022-07-03T15:35:17;23.70;81.80
54590;DHT22;40485;53.172;5.416;2022-07-03T15:38:04;23.80;83.40
54590;DHT22;40485;53.172;5.416;2022-07-03T15:43:14;23.90;80.90
54590;DHT22;40485;53.172;5.416;2022-07-03T15:54:13;23.60;80.90
54590;DHT22;40485;53.172;5.416;2022-07-03T15:56:46;23.50;80.40
54590;DHT22;40485;53.172;5.416;2022-07-03T15:59:16;23.40;79.30
54590;DHT22;40485;53.172;5.416;2022-07-03T16:01:53;23.30;80.30
54590;DHT22;40485;53.172;5.416;2022-07-03T16:05:05;23.20;81.90
54590;DHT22;40485;53.172;5.416;2022-07-03T16:07:36;23.10;82.60
54590;DHT22;40485;53.172;5.416;2022-07-03T16:10:04;23.00;82.90
54590;DHT22;40485;53.172;5.416;2022-07-03T16:12:30;23.00;82.50
54590;DHT22;40485;53.172;5.416;2022-07-03T16:14:57;23.10;83.00
54590;DHT22;40485;53.172;5.416;2022-07-03T16:17:23;23.00;82.80
54590;DHT22;40485;53.172;5.416;2022-07-03T16:19:50;23.00;81.50
54590;DHT22;40485;53.172;5.416;2022-07-03T16:22:17;23.10;83.00
54590;DHT22;40485;53.172;5.416;2022-07-03T16:24:43;23.10;82.00
54590;DHT22;40485;53.172;5.416;2022-07-03T16:27:17;23.10;81.60
54590;DHT22;40485;53.172;5.416;2022-07-03T16:29:45;23.10;81.20
54590;DHT22;40485;53.172;5.416;2022-07-03T16:32:18;23.00;81.80
54590;DHT22;40485;53.172;5.416;2022-07-03T16:34:54;23.00;80.90
54590;DHT22;40485;53.172;5.416;2022-07-03T16:40:03;22.90;81.70
54590;DHT22;40485;53.172;5.416;2022-07-03T16:42:31;22.80;82.20
54590;DHT22;40485;53.172;5.416;2022-07-03T16:45:06;22.70;82.50
54590;DHT22;40485;53.172;5.416;2022-07-03T16:47:37;22.60;83.40
54590;DHT22;40485;53.172;5.416;2022-07-03T16:50:03;22.60;83.50
54590;DHT22;40485;53.172;5.416;2022-07-03T16:52:30;22.50;82.60
54590;DHT22;40485;53.172;5.416;2022-07-03T16:54:56;22.50;82.90
54590;DHT22;40485;53.172;5.416;2022-07-03T16:57:24;22.50;82.90
54590;DHT22;40485;53.172;5.416;2022-07-03T16:59:51;22.50;82.40
54590;DHT22;40485;53.172;5.416;2022-07-03T17:02:17;22.50;82.30
54590;DHT22;40485;53.172;5.416;2022-07-03T17:04:44;22.40;82.90
54590;DHT22;40485;53.172;5.416;2022-07-03T17:07:10;22.30;81.80
54590;DHT22;40485;53.172;5.416;2022-07-03T17:09:39;22.20;80.90
54590;DHT22;40485;53.172;5.416;2022-07-03T17:12:06;22.10;82.70
54590;DHT22;40485;53.172;5.416;2022-07-03T17:14:31;22.10;81.80